createdAt,value
2023-05-02T00:01:07.398Z,29.65
2023-05-02T00:03:35.424Z,28.83
2023-05-02T00:06:03.498Z,28.42
2023-05-02T00:08:31.847Z,25.63
2023-05-02T00:11:01.334Z,33.63
2023-05-02T00:13:29.596Z,30.55
2023-05-02T00:15:57.560Z,30.98
2023-05-02T00:18:25.713Z,32.45
2023-05-02T00:20:53.617Z,36.03
2023-05-02T00:23:21.858Z,34.65
2023-05-02T00:25:49.822Z,35.55
2023-05-02T00:28:19.505Z,38.13
2023-05-02T00:30:47.928Z,34.15
2023-05-02T00:33:16.083Z,34.55
2023-05-02T00:35:44.187Z,34.50
2023-05-02T00:38:12.169Z,34.20
2023-05-02T00:40:47.748Z,37.40
2023-05-02T00:43:16.252Z,35.42
2023-05-02T00:45:46.800Z,39.55
2023-05-02T00:48:15.180Z,41.15
2023-05-02T00:50:43.982Z,34.90
2023-05-02T00:53:12.414Z,31.45
2023-05-02T00:55:40.434Z,32.00
2023-05-02T00:58:12.877Z,31.88
2023-05-02T01:00:52.451Z,35.47
2023-05-02T01:03:29.445Z,33.47
2023-05-02T01:06:04.947Z,36.35
2023-05-02T01:08:37.135Z,32.20
2023-05-02T01:11:11.636Z,31.05
2023-05-02T01:13:40.532Z,32.03
2023-05-02T01:16:13.135Z,30.70
2023-05-02T01:18:43.637Z,27.88
2023-05-02T01:21:12.830Z,31.38
2023-05-02T01:23:54.848Z,28.27
2023-05-02T01:26:29.135Z,28.10
2023-05-02T01:31:28.621Z,24.15
2023-05-02T01:33:58.556Z,22.50
2023-05-02T01:36:30.398Z,23.23
2023-05-02T01:38:59.038Z,21.10
2023-05-02T01:41:28.782Z,22.27
2023-05-02T01:43:59.714Z,19.40
2023-05-02T01:46:28.809Z,23.70
2023-05-02T01:48:59.248Z,15.88
2023-05-02T01:51:29.964Z,18.90
2023-05-02T01:53:58.506Z,16.05
2023-05-02T01:56:27.852Z,16.85
2023-05-02T01:58:58.612Z,20.95
2023-05-02T02:01:31.012Z,15.10
2023-05-02T02:04:00.001Z,18.48
2023-05-02T02:06:28.702Z,18.35
2023-05-02T02:08:56.894Z,9.48
2023-05-02T02:11:28.890Z,12.80
2023-05-02T02:14:07.892Z,13.05
2023-05-02T02:16:39.522Z,12.93
2023-05-02T02:19:09.404Z,13.65
2023-05-02T02:21:38.723Z,16.20
2023-05-02T02:24:08.214Z,21.95
2023-05-02T02:26:36.740Z,13.20
2023-05-02T02:29:06.264Z,14.93
2023-05-02T02:31:35.568Z,18.05
2023-05-02T02:34:03.937Z,10.93
2023-05-02T02:36:35.759Z,11.80
2023-05-02T02:39:10.499Z,12.45
2023-05-02T02:41:41.670Z,11.95
2023-05-02T02:44:20.050Z,11.25
2023-05-02T02:46:51.182Z,12.43
2023-05-02T02:49:31.549Z,12.55
2023-05-02T02:52:04.797Z,9.88
2023-05-02T02:54:35.150Z,11.15
2023-05-02T02:57:07.767Z,15.05
2023-05-02T02:59:41.499Z,19.08
2023-05-02T03:02:11.139Z,14.57
2023-05-02T03:04:41.107Z,8.95
2023-05-02T03:07:09.523Z,16.58
2023-05-02T03:09:44.385Z,20.48
2023-05-02T03:12:16.928Z,16.17
2023-05-02T03:14:47.434Z,17.17
2023-05-02T03:17:15.838Z,14.85
2023-05-02T03:19:43.969Z,13.10
2023-05-02T03:22:13.275Z,11.57
2023-05-02T03:24:41.581Z,12.90
2023-05-02T03:27:10.915Z,18.90
2023-05-02T03:29:42.648Z,15.55
2023-05-02T03:32:14.225Z,12.63
2023-05-02T03:34:44.601Z,9.15
2023-05-02T03:37:13.184Z,11.27
2023-05-02T03:39:41.544Z,9.40
2023-05-02T03:42:09.633Z,8.65
2023-05-02T03:44:37.813Z,9.70
2023-05-02T03:47:05.885Z,10.23
2023-05-02T03:49:41.600Z,7.43
2023-05-02T03:52:10.533Z,12.05
2023-05-02T03:54:39.359Z,9.05
2023-05-02T03:57:08.215Z,10.00
2023-05-02T03:59:36.672Z,15.52
2023-05-02T04:02:14.281Z,11.77
2023-05-02T04:04:48.132Z,7.88
2023-05-02T04:07:19.919Z,12.75
2023-05-02T04:09:58.552Z,10.65
2023-05-02T04:12:27.381Z,9.77
2023-05-02T04:14:55.895Z,11.43
2023-05-02T04:17:28.261Z,9.40
2023-05-02T04:19:58.206Z,7.03
2023-05-02T04:22:28.654Z,8.90
2023-05-02T04:25:01.115Z,11.15
2023-05-02T04:27:30.583Z,12.93
2023-05-02T04:29:59.927Z,8.35
2023-05-02T04:32:28.513Z,12.48
2023-05-02T04:34:59.191Z,11.93
2023-05-02T04:37:27.532Z,15.30
2023-05-02T04:39:55.902Z,10.52
2023-05-02T04:42:27.695Z,10.93
2023-05-02T04:45:02.883Z,8.70
2023-05-02T04:47:30.993Z,10.05
2023-05-02T04:50:00.897Z,11.18
2023-05-02T04:52:30.268Z,10.05
2023-05-02T04:54:58.525Z,12.90
2023-05-02T04:57:26.706Z,9.70
2023-05-02T04:59:58.312Z,6.40
2023-05-02T05:02:27.428Z,10.18
2023-05-02T05:04:57.185Z,11.25
2023-05-02T05:07:26.905Z,10.32
2023-05-02T05:09:56.218Z,13.15
2023-05-02T05:12:27.463Z,9.10
2023-05-02T05:14:56.028Z,13.48
2023-05-02T05:17:26.986Z,13.35
2023-05-02T05:19:55.080Z,10.30
2023-05-02T05:22:24.088Z,20.75
2023-05-02T05:24:54.620Z,7.47
2023-05-02T05:27:25.835Z,7.78
2023-05-02T05:29:54.373Z,10.70
2023-05-02T05:32:24.343Z,11.25
2023-05-02T05:34:53.333Z,9.32
2023-05-02T05:37:23.360Z,15.95
2023-05-02T05:39:53.198Z,11.45
2023-05-02T05:42:21.271Z,15.00
2023-05-02T05:44:52.581Z,13.70
2023-05-02T05:47:23.012Z,14.82
2023-05-02T05:49:54.444Z,18.38
2023-05-02T05:52:24.269Z,20.92
2023-05-02T05:54:57.075Z,11.75
2023-05-02T05:57:28.466Z,17.27
2023-05-02T05:59:58.177Z,19.30
2023-05-02T06:02:26.937Z,20.77
2023-05-02T06:04:56.709Z,15.45
2023-05-02T06:07:26.913Z,14.60
2023-05-02T06:09:56.381Z,16.58
2023-05-02T06:12:24.615Z,22.45
2023-05-02T06:14:53.082Z,17.38
2023-05-02T06:17:22.398Z,28.10
2023-05-02T06:19:51.298Z,17.70
2023-05-02T06:22:19.549Z,13.68
2023-05-02T06:24:47.587Z,20.52
2023-05-02T06:27:16.952Z,25.20
2023-05-02T06:29:44.895Z,15.77
2023-05-02T06:32:12.901Z,19.55
2023-05-02T06:34:41.069Z,18.67
2023-05-02T06:37:09.256Z,19.98
2023-05-02T06:39:37.617Z,11.38
2023-05-02T06:42:05.889Z,15.02
2023-05-02T06:44:36.994Z,13.60
2023-05-02T06:47:06.871Z,20.27
2023-05-02T06:49:35.021Z,10.02
2023-05-02T06:52:03.432Z,12.38
2023-05-02T06:54:32.431Z,13.60
2023-05-02T06:57:01.037Z,10.55
2023-05-02T06:59:31.985Z,11.40
2023-05-02T07:02:04.439Z,9.05
2023-05-02T07:04:33.535Z,11.77
2023-05-02T07:07:01.431Z,14.70
2023-05-02T07:09:29.446Z,13.88
2023-05-02T07:11:57.460Z,11.85
2023-05-02T07:14:25.473Z,15.30
2023-05-02T07:16:54.845Z,14.88
2023-05-02T07:19:25.153Z,14.30
2023-05-02T07:21:53.189Z,11.88
2023-05-02T07:24:21.221Z,13.38
2023-05-02T07:26:49.387Z,13.52
2023-05-02T07:29:17.266Z,15.13
2023-05-02T07:31:45.708Z,16.75
2023-05-02T07:34:13.646Z,11.00
2023-05-02T07:36:43.120Z,17.48
2023-05-02T07:39:11.799Z,14.60
2023-05-02T07:41:40.178Z,20.40
2023-05-02T07:44:08.488Z,14.52
2023-05-02T07:46:36.818Z,16.10
2023-05-02T07:49:04.816Z,18.27
2023-05-02T07:51:33.120Z,13.38
2023-05-02T07:54:02.997Z,11.73
2023-05-02T07:56:30.921Z,13.27
2023-05-02T07:58:59.007Z,10.85
2023-05-02T08:01:28.769Z,7.45
2023-05-02T08:03:57.287Z,12.13
2023-05-02T08:06:25.694Z,14.05
2023-05-02T08:08:53.807Z,15.95
2023-05-02T08:11:25.553Z,14.55
2023-05-02T08:13:53.934Z,11.30
2023-05-02T08:16:22.149Z,10.25
2023-05-02T08:18:50.573Z,8.68
2023-05-02T08:21:18.693Z,9.27
2023-05-02T08:23:47.074Z,14.27
2023-05-02T08:26:15.985Z,15.32
2023-05-02T08:28:45.442Z,13.02
2023-05-02T08:31:13.505Z,14.30
2023-05-02T08:33:42.144Z,10.48
2023-05-02T08:36:14.498Z,18.58
2023-05-02T08:38:43.137Z,9.15
2023-05-02T08:41:12.728Z,10.43
2023-05-02T08:43:41.502Z,10.18
2023-05-02T08:46:11.909Z,9.38
2023-05-02T08:48:42.110Z,13.95
2023-05-02T08:51:11.651Z,6.60
2023-05-02T08:53:40.619Z,8.32
2023-05-02T08:56:09.798Z,13.88
2023-05-02T08:58:38.332Z,10.55
2023-05-02T09:01:15.639Z,9.35
2023-05-02T09:03:44.966Z,8.77
2023-05-02T09:06:14.512Z,6.68
2023-05-02T09:08:45.393Z,10.07
2023-05-02T09:11:14.278Z,9.05
2023-05-02T09:13:43.526Z,7.75
2023-05-02T09:16:14.768Z,11.02
2023-05-02T09:18:44.348Z,9.73
2023-05-02T09:21:13.586Z,9.52
2023-05-02T09:23:42.958Z,5.57
2023-05-02T09:26:21.370Z,8.10
2023-05-02T09:28:50.803Z,4.90
2023-05-02T09:31:43.413Z,5.28
2023-05-02T09:34:11.860Z,3.97
2023-05-02T09:36:41.819Z,5.60
2023-05-02T09:39:13.775Z,6.47
2023-05-02T09:41:42.989Z,7.82
2023-05-02T09:44:12.706Z,10.35
2023-05-02T09:46:43.854Z,6.78
2023-05-02T09:49:11.927Z,7.18
2023-05-02T09:51:40.443Z,11.77
2023-05-02T09:54:08.986Z,7.82
2023-05-02T09:56:56.689Z,13.18
2023-05-02T09:59:25.710Z,6.53
2023-05-02T10:01:59.067Z,5.80
2023-05-02T10:04:28.179Z,12.32
2023-05-02T10:06:56.594Z,7.40
2023-05-02T10:09:25.295Z,4.03
2023-05-02T10:11:54.297Z,10.10
2023-05-02T10:14:23.616Z,9.30
2023-05-02T10:17:01.643Z,8.45
2023-05-02T10:19:31.888Z,9.60
2023-05-02T10:22:00.660Z,6.47
2023-05-02T10:24:29.780Z,6.25
2023-05-02T10:27:00.941Z,10.93
2023-05-02T10:29:30.615Z,8.55
2023-05-02T10:32:01.573Z,10.57
2023-05-02T10:34:30.105Z,7.15
2023-05-02T10:37:01.535Z,10.73
2023-05-02T10:39:30.213Z,11.48
2023-05-02T10:41:59.560Z,11.65
2023-05-02T10:44:34.433Z,16.92
2023-05-02T10:47:19.573Z,8.50
2023-05-02T10:49:55.548Z,10.57
2023-05-02T10:52:27.992Z,7.63
2023-05-02T10:55:18.197Z,8.55
2023-05-02T10:58:23.769Z,12.07
2023-05-02T11:00:52.045Z,9.85
2023-05-02T11:03:59.417Z,9.82
2023-05-02T11:06:29.058Z,6.72
2023-05-02T11:09:30.807Z,11.15
2023-05-02T11:11:59.161Z,14.13
2023-05-02T11:14:50.928Z,9.07
2023-05-02T11:17:21.333Z,8.50
2023-05-02T11:20:26.516Z,6.65
2023-05-02T11:22:57.760Z,8.35
2023-05-02T11:25:39.646Z,8.85
2023-05-02T11:28:09.597Z,9.02
2023-05-02T11:30:43.671Z,11.73
2023-05-02T11:35:49.928Z,7.82
2023-05-02T11:38:21.742Z,12.40
2023-05-02T11:40:55.762Z,11.50
2023-05-02T11:43:25.252Z,7.85
2023-05-02T11:45:54.004Z,10.05
2023-05-02T11:48:23.439Z,12.15
2023-05-02T11:50:53.500Z,9.25
2023-05-02T11:53:24.091Z,4.75
2023-05-02T11:55:53.638Z,12.02
2023-05-02T11:58:23.220Z,11.63
2023-05-02T12:00:52.917Z,8.20
2023-05-02T12:03:31.885Z,9.15
2023-05-02T12:06:11.083Z,12.07
2023-05-02T12:08:41.855Z,11.80
2023-05-02T12:11:10.418Z,8.27
2023-05-02T12:13:46.457Z,10.75
2023-05-02T12:16:14.687Z,11.27
2023-05-02T12:18:43.260Z,10.68
2023-05-02T12:21:11.426Z,10.25
2023-05-02T12:23:42.382Z,9.85
2023-05-02T12:26:21.619Z,12.40
2023-05-02T12:28:51.023Z,10.77
2023-05-02T12:31:19.486Z,12.13
2023-05-02T12:33:50.766Z,11.85
2023-05-02T12:36:19.623Z,15.23
2023-05-02T12:38:54.358Z,13.82
2023-05-02T12:41:32.830Z,11.25
2023-05-02T12:44:01.253Z,12.90
2023-05-02T12:46:29.379Z,10.50
2023-05-02T12:49:05.759Z,7.32
2023-05-02T12:51:34.775Z,9.27
2023-05-02T12:54:04.931Z,11.43
2023-05-02T12:56:40.438Z,9.45
2023-05-02T12:59:09.673Z,11.50
2023-05-02T13:01:38.207Z,11.63
2023-05-02T13:04:06.988Z,12.20
2023-05-02T13:06:37.757Z,13.07
2023-05-02T13:09:07.938Z,9.48
2023-05-02T13:11:35.984Z,9.57
2023-05-02T13:14:06.034Z,17.52
2023-05-02T13:16:36.802Z,11.55
2023-05-02T13:19:06.306Z,14.48
2023-05-02T13:21:34.597Z,11.32
2023-05-02T13:24:04.282Z,22.42
2023-05-02T13:26:33.653Z,11.35
2023-05-02T13:29:01.935Z,15.70
2023-05-02T13:31:30.104Z,8.30
2023-05-02T13:33:58.312Z,8.43
2023-05-02T13:36:26.389Z,9.80
2023-05-02T13:38:54.856Z,13.13
2023-05-02T13:41:24.776Z,14.32
2023-05-02T13:43:54.484Z,12.88
2023-05-02T13:46:22.943Z,11.40
2023-05-02T13:48:51.050Z,7.13
2023-05-02T13:51:19.636Z,9.20
2023-05-02T13:53:47.702Z,13.00
2023-05-02T13:56:16.181Z,10.57
2023-05-02T13:58:44.066Z,9.25
2023-05-02T14:01:13.663Z,8.10
2023-05-02T14:03:42.139Z,15.80
2023-05-02T14:06:10.416Z,14.50
2023-05-02T14:08:38.302Z,11.13
2023-05-02T14:11:07.396Z,9.40
2023-05-02T14:13:35.606Z,11.85
2023-05-02T14:16:04.061Z,13.48
2023-05-02T14:18:34.077Z,10.07
2023-05-02T14:21:03.286Z,14.27
2023-05-02T14:23:31.548Z,11.15
2023-05-02T14:25:59.422Z,8.98
2023-05-02T14:28:28.080Z,10.90
2023-05-02T14:30:56.579Z,13.98
2023-05-02T14:33:24.825Z,9.80
2023-05-02T14:35:54.428Z,13.30
2023-05-02T14:38:22.703Z,7.68
2023-05-02T14:40:50.847Z,8.43
2023-05-02T14:43:19.026Z,6.78
2023-05-02T14:45:47.155Z,8.13
2023-05-02T14:48:17.274Z,11.35
2023-05-02T14:50:45.518Z,11.40
2023-05-02T14:53:15.107Z,8.55
2023-05-02T14:55:43.388Z,13.70
2023-05-02T14:58:11.803Z,5.93
2023-05-02T15:00:40.298Z,8.07
2023-05-02T15:03:10.029Z,13.52
2023-05-02T15:05:38.399Z,6.85
2023-05-02T15:08:07.244Z,10.48
2023-05-02T15:10:39.954Z,11.25
2023-05-02T15:13:08.942Z,9.35
2023-05-02T15:15:37.696Z,7.15
2023-05-02T15:18:06.305Z,10.52
2023-05-02T15:20:34.472Z,6.82
2023-05-02T15:23:03.720Z,9.20
2023-05-02T15:25:32.603Z,10.60
2023-05-02T15:28:03.183Z,11.68
2023-05-02T15:30:32.040Z,8.50
2023-05-02T15:33:00.267Z,11.35
2023-05-02T15:35:28.394Z,11.57
2023-05-02T15:37:56.979Z,10.55
2023-05-02T15:40:26.065Z,6.68
2023-05-02T15:42:54.385Z,7.45
2023-05-02T15:45:24.081Z,6.75
2023-05-02T15:47:52.397Z,10.75
2023-05-02T15:50:20.735Z,10.48
2023-05-02T15:52:49.411Z,12.43
2023-05-02T15:55:17.939Z,6.68
2023-05-02T15:57:46.289Z,8.45
2023-05-02T16:00:17.024Z,6.43
2023-05-02T16:02:46.557Z,7.95
2023-05-02T16:05:14.707Z,5.13
2023-05-02T16:07:42.784Z,5.55
2023-05-02T16:10:11.605Z,9.23
2023-05-02T16:12:39.699Z,7.32
2023-05-02T16:15:09.588Z,8.00
2023-05-02T16:17:37.793Z,9.52
2023-05-02T16:20:08.986Z,8.25
2023-05-02T16:22:38.554Z,7.53
2023-05-02T16:25:07.499Z,10.50
2023-05-02T16:27:35.804Z,10.68
2023-05-02T16:30:04.240Z,7.18
2023-05-02T16:32:32.746Z,8.27
2023-05-02T16:35:00.925Z,10.88
2023-05-02T16:37:30.557Z,7.35
2023-05-02T16:40:01.217Z,6.78
2023-05-02T16:42:30.008Z,10.77
2023-05-02T16:44:58.664Z,4.93
2023-05-02T16:47:28.055Z,6.88
2023-05-02T16:49:57.663Z,4.65
2023-05-02T16:52:26.898Z,8.95
2023-05-02T16:54:56.720Z,4.82
2023-05-02T16:57:24.959Z,5.90
2023-05-02T16:59:53.849Z,7.03
2023-05-02T17:02:22.629Z,8.20
2023-05-02T17:04:50.898Z,4.28
2023-05-02T17:07:19.015Z,6.45
2023-05-02T17:09:47.105Z,12.40
2023-05-02T17:12:22.409Z,5.07
2023-05-02T17:14:51.828Z,7.00
2023-05-02T17:17:23.119Z,5.88
2023-05-02T17:19:52.010Z,12.00
2023-05-02T17:22:20.796Z,6.25
2023-05-02T17:24:52.960Z,11.05
2023-05-02T17:27:22.722Z,9.32
2023-05-02T17:29:51.150Z,3.60
2023-05-02T17:32:19.225Z,8.10
2023-05-02T17:34:47.524Z,10.75
2023-05-02T17:37:15.573Z,7.35
2023-05-02T17:39:44.187Z,4.22
2023-05-02T17:42:12.544Z,5.80
2023-05-02T17:44:42.093Z,4.45
2023-05-02T17:47:10.140Z,4.00
2023-05-02T17:49:38.117Z,7.05
2023-05-02T17:52:06.129Z,6.43
2023-05-02T17:54:34.477Z,4.63
2023-05-02T17:57:02.466Z,4.03
2023-05-02T17:59:30.503Z,11.70
2023-05-02T18:02:00.085Z,5.85
2023-05-02T18:04:28.161Z,4.78
2023-05-02T18:06:56.452Z,5.30
2023-05-02T18:09:24.630Z,5.53
2023-05-02T18:11:53.486Z,7.78
2023-05-02T18:14:22.901Z,11.05
2023-05-02T18:16:51.522Z,3.97
2023-05-02T18:19:22.189Z,5.63
2023-05-02T18:21:51.630Z,9.82
2023-05-02T18:24:19.783Z,5.07
2023-05-02T18:26:50.067Z,4.70
2023-05-02T18:29:18.409Z,10.95
2023-05-02T18:31:52.520Z,6.20
2023-05-02T18:34:22.915Z,5.63
2023-05-02T18:36:51.794Z,8.65
2023-05-02T18:39:21.829Z,5.97
2023-05-02T18:41:50.307Z,7.95
2023-05-02T18:44:18.974Z,5.03
2023-05-02T18:46:47.669Z,9.32
2023-05-02T18:49:16.049Z,8.35
2023-05-02T18:51:45.568Z,8.68
2023-05-02T18:54:14.187Z,6.25
2023-05-02T18:56:42.577Z,10.10
2023-05-02T18:59:10.680Z,3.63
2023-05-02T19:01:39.504Z,6.40
2023-05-02T19:04:08.292Z,3.58
2023-05-02T19:06:36.441Z,6.70
2023-05-02T19:09:06.983Z,10.45
2023-05-02T19:11:35.230Z,4.30
2023-05-02T19:14:03.718Z,7.30
2023-05-02T19:16:32.463Z,5.28
2023-05-02T19:19:00.658Z,8.23
2023-05-02T19:21:29.086Z,7.18
2023-05-02T19:23:57.633Z,4.60
2023-05-02T19:26:27.547Z,5.93
2023-05-02T19:28:55.932Z,6.93
2023-05-02T19:31:24.718Z,7.95
2023-05-02T19:33:52.889Z,5.22
2023-05-02T19:36:22.237Z,3.60
2023-05-02T19:38:51.213Z,5.47
2023-05-02T19:41:19.660Z,5.93
2023-05-02T19:43:53.128Z,10.82
2023-05-02T19:46:26.667Z,5.45
2023-05-02T19:48:55.574Z,5.57
2023-05-02T19:51:25.731Z,5.68
2023-05-02T19:53:54.042Z,7.97
2023-05-02T19:56:25.341Z,10.45
2023-05-02T19:58:55.043Z,2.95
2023-05-02T20:01:23.197Z,8.98
2023-05-02T20:03:51.342Z,6.00
2023-05-02T20:06:19.596Z,8.95
2023-05-02T20:08:47.992Z,5.43
2023-05-02T20:11:16.147Z,4.88
2023-05-02T20:13:44.426Z,9.77
2023-05-02T20:16:14.795Z,5.43
2023-05-02T20:18:42.972Z,8.88
2023-05-02T20:21:13.466Z,6.10
2023-05-02T20:23:43.666Z,6.43
2023-05-02T20:26:14.187Z,6.35
2023-05-02T20:28:42.783Z,6.03
2023-05-02T20:31:11.401Z,6.40
2023-05-02T20:33:45.255Z,8.25
2023-05-02T20:36:15.163Z,10.82
2023-05-02T20:38:44.883Z,6.93
2023-05-02T20:41:14.274Z,7.28
2023-05-02T20:43:44.945Z,8.63
2023-05-02T20:46:16.359Z,3.95
2023-05-02T20:48:46.184Z,6.63
2023-05-02T20:51:14.294Z,5.22
2023-05-02T20:53:42.777Z,3.67
2023-05-02T20:56:10.893Z,8.13
2023-05-02T20:58:39.502Z,10.80
2023-05-02T21:01:07.846Z,3.42
2023-05-02T21:03:39.399Z,6.38
2023-05-02T21:06:08.914Z,8.57
2023-05-02T21:08:37.026Z,9.43
2023-05-02T21:11:13.614Z,6.47
2023-05-02T21:13:42.174Z,10.50
2023-05-02T21:16:17.360Z,7.47
2023-05-02T21:18:45.882Z,5.88
2023-05-02T21:21:15.587Z,7.00
2023-05-02T21:23:43.877Z,3.13
2023-05-02T21:26:12.340Z,5.25
2023-05-02T21:28:40.552Z,8.38
2023-05-02T21:31:08.837Z,6.70
2023-05-02T21:33:37.216Z,9.25
2023-05-02T21:36:05.446Z,5.88
2023-05-02T21:38:34.899Z,4.50
2023-05-02T21:41:04.076Z,4.45
2023-05-02T21:43:32.950Z,10.52
2023-05-02T21:46:01.198Z,7.30
2023-05-02T21:48:29.324Z,9.38
2023-05-02T21:50:57.555Z,11.23
2023-05-02T21:53:27.116Z,9.27
2023-05-02T21:55:56.498Z,6.07
2023-05-02T21:58:24.629Z,8.27
2023-05-02T22:00:53.117Z,6.88
2023-05-02T22:03:21.416Z,8.57
2023-05-02T22:05:50.345Z,5.65
2023-05-02T22:08:20.484Z,4.82
2023-05-02T22:10:48.908Z,5.72
2023-05-02T22:13:18.490Z,6.13
2023-05-02T22:15:47.691Z,5.40
2023-05-02T22:18:16.975Z,7.80
2023-05-02T22:20:46.020Z,7.10
2023-05-02T22:23:14.055Z,8.23
2023-05-02T22:25:43.081Z,8.65
2023-05-02T22:28:12.292Z,7.82
2023-05-02T22:30:42.975Z,12.38
2023-05-02T22:33:11.529Z,5.47
2023-05-02T22:35:39.917Z,7.68
2023-05-02T22:38:09.329Z,7.78
2023-05-02T22:40:37.732Z,8.30
2023-05-02T22:43:06.001Z,10.68
2023-05-02T22:45:34.320Z,4.90
2023-05-02T22:48:04.322Z,7.25
2023-05-02T22:50:32.653Z,3.75
2023-05-02T22:53:03.914Z,5.25
2023-05-02T22:55:32.436Z,5.53
2023-05-02T22:58:00.401Z,6.90
2023-05-02T23:00:28.620Z,6.45
2023-05-02T23:02:57.449Z,4.70
2023-05-02T23:05:27.310Z,9.10
2023-05-02T23:07:55.507Z,7.72
2023-05-02T23:10:23.793Z,5.30
2023-05-02T23:12:51.730Z,6.65
2023-05-02T23:15:20.210Z,8.30
2023-05-02T23:17:48.226Z,5.22
2023-05-02T23:20:19.593Z,7.00
2023-05-02T23:22:49.148Z,4.63
2023-05-02T23:25:17.419Z,9.75
2023-05-02T23:27:45.812Z,5.22
2023-05-02T23:30:14.196Z,5.65
2023-05-02T23:32:42.792Z,5.40
2023-05-02T23:35:12.496Z,4.82
2023-05-02T23:37:42.067Z,7.93
2023-05-02T23:40:12.130Z,6.10
2023-05-02T23:42:40.639Z,9.57
2023-05-02T23:45:09.391Z,8.18
2023-05-02T23:47:37.930Z,5.72
2023-05-02T23:50:06.993Z,9.15
2023-05-02T23:52:35.085Z,5.70
2023-05-02T23:55:03.602Z,9.32
2023-05-02T23:57:33.211Z,5.47
